Elkhart, IA (50073)

5:30 AM CDT on September 20, 2014 (GMT -0500)
Ankeny Regional | Change Station
CLOSE
Current Station
Airport
Location: Ankeny,
Elevation: 909 ft
Nearby Weather Stations

Elev 909 ft 41.69 °N, 93.57 °W | Updated 15 minutes ago

Rain
Rain
66 °F
Feels Like 66 °F
N
0
Wind Variable Wind from North

Today
High -- | Low -- °F
--% Chance of Precip.
Yesterday
High -- | Low -- °F
Precip. -- in
6:59 AM 7:14 PM
Waning Crescent, 13% visible
Pressure 29.88 in
Visibility 9.0 miles
Clouds Few 300 ft
Mostly Cloudy 7500 ft
Overcast 9000 ft
Dew Point 66 °F
Humidity 100%
Rainfall 0.13 in
Snow Depth Not available.
UV 0 out of 12
Pollen 5.60 out of 12
Ozone Good
PM2.5 Moderate
Flu Activity Not available.
METAR KIKV 201015Z AUTO 00000KT 9SM -DZ FEW003 BKN075 OVC090 19/19 A2988 RMK AO2

More Conditions Fewer Conditions

Pressure 29.88 in
Visibility 9.0 miles
Clouds Few 300 ft
Mostly Cloudy 7500 ft
Overcast 9000 ft
Dew Point 66 °F
Humidity 100%
Rainfall 0.13 in
Snow Depth Not available.
UV 0 out of 12
Pollen 5.60 out of 12
Ozone Good
PM2.5 Moderate
Flu Activity Not available.
METAR KIKV 201015Z AUTO 00000KT 9SM -DZ FEW003 BKN075 OVC090 19/19 A2988 RMK AO2

More Conditions Fewer Conditions

10-Day Weather Forecast

Almanac

Astronomy

Sep. 20, 2014 Rise Set
Actual Time 6:59 AM CDT 7:14 PM CDT
Civil Twilight 6:31 AM CDT 7:42 PM CDT
Nautical Twilight 5:58 AM CDT 8:15 PM CDT
Astronomical Twilight 5:25 AM CDT 8:48 PM CDT
Moon 3:36 AM CDT 5:20 PM CDT
Length of Visible Light 13h 10m
Length of Day
12h 15m
Tomorrow will be 2m 47s shorter.
Waning Crescent, 13% of the Moon is Illuminated
Today
Waning Crescent
Sep 24
New
Oct 1
First Quarter
Oct 8
Full
Oct 15
Last Quarter

Today's Extremes

State Highs State Lows

Community

WunderPhotos

Upload Photos

1,754,827 photos uploaded!

WunderBlogs® & News

Nearby

Air Quality

  Air Quality AQ Index Pollutant
Yesterday Good
PM2.5
Yesterday Good
OZONE
Current Moderate
PM2.5
Current Good
OZONE
Saturday Good
OZONE
Saturday Good
PM2.5
Saturday Good
CO
Saturday Good
NO2
Sunday Good
OZONE
Sunday Good
PM2.5
Sunday Good
CO
Sunday Good
NO2
Monday Good
OZONE
Monday Good
PM2.5
Monday Good
CO
Monday Good
NO2
Tuesday Good
OZONE
Tuesday Good
PM2.5
Tuesday Good
CO
Tuesday Good
NO2

Snow Depth

Station Depth Elevation
No new snow has been reported.

Earthquake Activity

City Distance Mag. Time & Date
No recent earthquake activity has been reported nearby.
Minimum magnitude displayed is 2.5.

Coastal Water Temperatures

Place Temperature
No Stations Reporting

Nearby Weather Stations